sensor_id;sensor_type;location;lat;lon;timestamp;P1;durP1;ratioP1;P2;durP2;ratioP2
22318;SDS011;11327;52.334;9.506;2023-06-24T00:00:02;9.68;;;4.90;;
22318;SDS011;11327;52.334;9.506;2023-06-24T00:03:26;9.78;;;5.05;;
22318;SDS011;11327;52.334;9.506;2023-06-24T00:06:47;6.25;;;4.40;;
22318;SDS011;11327;52.334;9.506;2023-06-24T00:10:07;7.10;;;4.58;;
22318;SDS011;11327;52.334;9.506;2023-06-24T00:13:29;6.10;;;4.92;;
22318;SDS011;11327;52.334;9.506;2023-06-24T00:16:50;7.70;;;5.00;;
22318;SDS011;11327;52.334;9.506;2023-06-24T00:20:11;10.25;;;5.60;;
22318;SDS011;11327;52.334;9.506;2023-06-24T00:23:34;8.13;;;5.40;;
22318;SDS011;11327;52.334;9.506;2023-06-24T00:26:55;8.40;;;4.95;;
22318;SDS011;11327;52.334;9.506;2023-06-24T00:30:16;7.55;;;5.20;;
22318;SDS011;11327;52.334;9.506;2023-06-24T00:33:37;5.53;;;4.50;;
22318;SDS011;11327;52.334;9.506;2023-06-24T00:36:59;8.75;;;5.37;;
22318;SDS011;11327;52.334;9.506;2023-06-24T00:40:20;7.03;;;5.08;;
22318;SDS011;11327;52.334;9.506;2023-06-24T00:43:41;10.03;;;5.22;;
22318;SDS011;11327;52.334;9.506;2023-06-24T00:47:01;9.75;;;5.25;;
22318;SDS011;11327;52.334;9.506;2023-06-24T00:50:22;7.20;;;5.90;;
22318;SDS011;11327;52.334;9.506;2023-06-24T00:53:43;8.05;;;5.90;;
22318;SDS011;11327;52.334;9.506;2023-06-24T00:57:04;6.85;;;5.40;;
22318;SDS011;11327;52.334;9.506;2023-06-24T01:00:25;7.10;;;5.80;;
22318;SDS011;11327;52.334;9.506;2023-06-24T01:03:47;6.67;;;4.83;;
22318;SDS011;11327;52.334;9.506;2023-06-24T01:07:07;6.83;;;5.60;;
22318;SDS011;11327;52.334;9.506;2023-06-24T01:10:28;7.70;;;5.35;;
22318;SDS011;11327;52.334;9.506;2023-06-24T01:13:49;8.45;;;5.40;;
22318;SDS011;11327;52.334;9.506;2023-06-24T01:17:22;10.95;;;6.22;;
22318;SDS011;11327;52.334;9.506;2023-06-24T01:24:29;7.15;;;5.62;;
22318;SDS011;11327;52.334;9.506;2023-06-24T01:31:42;8.85;;;5.85;;
22318;SDS011;11327;52.334;9.506;2023-06-24T01:35:07;6.60;;;5.25;;
22318;SDS011;11327;52.334;9.506;2023-06-24T01:38:31;8.05;;;5.30;;
22318;SDS011;11327;52.334;9.506;2023-06-24T01:41:56;8.10;;;5.60;;
22318;SDS011;11327;52.334;9.506;2023-06-24T01:45:26;9.53;;;5.83;;
22318;SDS011;11327;52.334;9.506;2023-06-24T01:48:55;8.20;;;5.78;;
22318;SDS011;11327;52.334;9.506;2023-06-24T01:52:23;8.28;;;5.30;;
22318;SDS011;11327;52.334;9.506;2023-06-24T01:55:45;8.25;;;5.10;;
22318;SDS011;11327;52.334;9.506;2023-06-24T01:59:07;7.33;;;5.22;;
22318;SDS011;11327;52.334;9.506;2023-06-24T02:02:28;8.23;;;5.33;;
22318;SDS011;11327;52.334;9.506;2023-06-24T02:05:50;12.13;;;5.22;;
22318;SDS011;11327;52.334;9.506;2023-06-24T02:09:13;6.42;;;4.80;;
22318;SDS011;11327;52.334;9.506;2023-06-24T02:12:37;7.30;;;5.53;;
22318;SDS011;11327;52.334;9.506;2023-06-24T02:15:59;9.45;;;5.15;;
22318;SDS011;11327;52.334;9.506;2023-06-24T02:19:23;8.28;;;4.80;;
22318;SDS011;11327;52.334;9.506;2023-06-24T02:22:47;6.85;;;4.95;;
22318;SDS011;11327;52.334;9.506;2023-06-24T02:26:08;7.33;;;5.37;;
22318;SDS011;11327;52.334;9.506;2023-06-24T02:29:31;8.18;;;4.85;;
22318;SDS011;11327;52.334;9.506;2023-06-24T02:32:52;8.75;;;5.10;;
22318;SDS011;11327;52.334;9.506;2023-06-24T02:36:15;8.95;;;5.20;;
22318;SDS011;11327;52.334;9.506;2023-06-24T02:39:36;9.73;;;5.03;;
22318;SDS011;11327;52.334;9.506;2023-06-24T02:42:59;8.95;;;5.08;;
22318;SDS011;11327;52.334;9.506;2023-06-24T02:46:21;8.18;;;4.72;;
22318;SDS011;11327;52.334;9.506;2023-06-24T02:49:44;9.38;;;5.22;;
22318;SDS011;11327;52.334;9.506;2023-06-24T02:53:06;7.05;;;4.72;;
22318;SDS011;11327;52.334;9.506;2023-06-24T02:56:29;6.53;;;4.75;;
22318;SDS011;11327;52.334;9.506;2023-06-24T02:59:51;7.50;;;4.70;;
22318;SDS011;11327;52.334;9.506;2023-06-24T03:03:12;8.70;;;4.70;;
22318;SDS011;11327;52.334;9.506;2023-06-24T03:06:33;7.28;;;4.90;;
22318;SDS011;11327;52.334;9.506;2023-06-24T03:09:56;6.78;;;4.95;;
22318;SDS011;11327;52.334;9.506;2023-06-24T03:13:18;7.90;;;5.15;;
22318;SDS011;11327;52.334;9.506;2023-06-24T03:16:39;7.85;;;5.50;;
22318;SDS011;11327;52.334;9.506;2023-06-24T03:20:00;7.33;;;5.05;;
22318;SDS011;11327;52.334;9.506;2023-06-24T03:23:20;7.58;;;4.78;;
22318;SDS011;11327;52.334;9.506;2023-06-24T03:26:41;6.37;;;4.80;;
22318;SDS011;11327;52.334;9.506;2023-06-24T03:30:02;8.48;;;5.15;;
22318;SDS011;11327;52.334;9.506;2023-06-24T03:33:23;7.50;;;4.53;;
22318;SDS011;11327;52.334;9.506;2023-06-24T03:36:44;8.13;;;4.75;;
22318;SDS011;11327;52.334;9.506;2023-06-24T03:40:06;7.62;;;4.90;;
22318;SDS011;11327;52.334;9.506;2023-06-24T03:43:28;7.33;;;5.00;;
22318;SDS011;11327;52.334;9.506;2023-06-24T03:46:49;8.43;;;5.70;;
22318;SDS011;11327;52.334;9.506;2023-06-24T03:50:10;5.83;;;5.05;;
22318;SDS011;11327;52.334;9.506;2023-06-24T03:53:31;8.20;;;5.40;;
22318;SDS011;11327;52.334;9.506;2023-06-24T03:56:51;10.50;;;5.67;;
22318;SDS011;11327;52.334;9.506;2023-06-24T04:00:12;11.60;;;5.22;;
22318;SDS011;11327;52.334;9.506;2023-06-24T04:03:36;6.85;;;5.42;;
22318;SDS011;11327;52.334;9.506;2023-06-24T04:06:57;8.43;;;5.30;;
22318;SDS011;11327;52.334;9.506;2023-06-24T04:10:17;10.03;;;5.47;;
22318;SDS011;11327;52.334;9.506;2023-06-24T04:13:38;7.55;;;5.33;;
22318;SDS011;11327;52.334;9.506;2023-06-24T04:16:59;8.18;;;5.85;;
22318;SDS011;11327;52.334;9.506;2023-06-24T04:20:20;10.28;;;5.85;;
22318;SDS011;11327;52.334;9.506;2023-06-24T04:23:41;9.05;;;5.97;;
22318;SDS011;11327;52.334;9.506;2023-06-24T04:27:02;8.38;;;6.62;;
22318;SDS011;11327;52.334;9.506;2023-06-24T04:30:23;9.43;;;6.17;;
22318;SDS011;11327;52.334;9.506;2023-06-24T04:33:43;10.60;;;6.58;;
22318;SDS011;11327;52.334;9.506;2023-06-24T04:37:04;9.73;;;6.95;;
22318;SDS011;11327;52.334;9.506;2023-06-24T04:40:25;8.75;;;6.50;;
22318;SDS011;11327;52.334;9.506;2023-06-24T04:43:45;8.55;;;6.40;;
22318;SDS011;11327;52.334;9.506;2023-06-24T04:47:06;12.75;;;7.20;;
22318;SDS011;11327;52.334;9.506;2023-06-24T04:50:27;10.80;;;7.75;;
22318;SDS011;11327;52.334;9.506;2023-06-24T04:53:48;10.68;;;7.80;;
22318;SDS011;11327;52.334;9.506;2023-06-24T04:57:09;10.65;;;7.87;;
22318;SDS011;11327;52.334;9.506;2023-06-24T05:00:32;11.70;;;7.65;;
22318;SDS011;11327;52.334;9.506;2023-06-24T05:03:53;9.75;;;6.92;;
22318;SDS011;11327;52.334;9.506;2023-06-24T05:07:13;12.28;;;8.18;;
22318;SDS011;11327;52.334;9.506;2023-06-24T05:10:34;10.72;;;7.90;;
22318;SDS011;11327;52.334;9.506;2023-06-24T05:13:55;9.60;;;7.47;;
22318;SDS011;11327;52.334;9.506;2023-06-24T05:17:16;8.15;;;7.03;;
22318;SDS011;11327;52.334;9.506;2023-06-24T05:20:37;10.28;;;7.40;;
22318;SDS011;11327;52.334;9.506;2023-06-24T05:23:58;10.75;;;7.00;;
22318;SDS011;11327;52.334;9.506;2023-06-24T05:27:19;9.88;;;7.62;;
22318;SDS011;11327;52.334;9.506;2023-06-24T05:30:40;11.20;;;7.75;;
22318;SDS011;11327;52.334;9.506;2023-06-24T05:34:02;13.25;;;8.35;;
22318;SDS011;11327;52.334;9.506;2023-06-24T05:37:23;11.60;;;7.60;;
22318;SDS011;11327;52.334;9.506;2023-06-24T05:40:43;11.45;;;7.90;;
22318;SDS011;11327;52.334;9.506;2023-06-24T05:44:06;10.35;;;8.13;;
22318;SDS011;11327;52.334;9.506;2023-06-24T05:47:27;12.50;;;8.30;;
22318;SDS011;11327;52.334;9.506;2023-06-24T05:50:48;10.68;;;7.78;;
22318;SDS011;11327;52.334;9.506;2023-06-24T05:54:09;10.40;;;7.83;;
22318;SDS011;11327;52.334;9.506;2023-06-24T05:57:30;11.50;;;8.83;;
22318;SDS011;11327;52.334;9.506;2023-06-24T06:00:50;10.30;;;7.58;;
22318;SDS011;11327;52.334;9.506;2023-06-24T06:04:11;11.75;;;8.28;;
22318;SDS011;11327;52.334;9.506;2023-06-24T06:07:32;9.83;;;7.92;;
22318;SDS011;11327;52.334;9.506;2023-06-24T06:10:52;10.20;;;7.75;;
22318;SDS011;11327;52.334;9.506;2023-06-24T06:14:13;11.00;;;7.55;;
22318;SDS011;11327;52.334;9.506;2023-06-24T06:17:34;9.30;;;7.40;;
22318;SDS011;11327;52.334;9.506;2023-06-24T06:20:55;8.43;;;7.42;;
22318;SDS011;11327;52.334;9.506;2023-06-24T06:24:15;10.28;;;8.18;;
22318;SDS011;11327;52.334;9.506;2023-06-24T06:27:36;10.40;;;8.45;;
22318;SDS011;11327;52.334;9.506;2023-06-24T06:30:57;7.95;;;7.12;;
22318;SDS011;11327;52.334;9.506;2023-06-24T06:34:18;8.80;;;7.55;;
22318;SDS011;11327;52.334;9.506;2023-06-24T06:37:38;8.95;;;7.37;;
22318;SDS011;11327;52.334;9.506;2023-06-24T06:40:59;8.23;;;7.20;;
22318;SDS011;11327;52.334;9.506;2023-06-24T06:44:20;8.53;;;6.90;;
22318;SDS011;11327;52.334;9.506;2023-06-24T06:47:41;10.32;;;7.47;;
22318;SDS011;11327;52.334;9.506;2023-06-24T06:51:02;7.60;;;6.80;;
22318;SDS011;11327;52.334;9.506;2023-06-24T06:54:23;9.60;;;6.62;;
22318;SDS011;11327;52.334;9.506;2023-06-24T06:57:44;8.85;;;6.90;;
22318;SDS011;11327;52.334;9.506;2023-06-24T07:01:04;6.85;;;6.17;;
22318;SDS011;11327;52.334;9.506;2023-06-24T07:04:26;9.88;;;6.47;;
22318;SDS011;11327;52.334;9.506;2023-06-24T07:07:47;9.58;;;7.08;;
22318;SDS011;11327;52.334;9.506;2023-06-24T07:11:09;7.83;;;5.72;;
22318;SDS011;11327;52.334;9.506;2023-06-24T07:14:30;6.85;;;5.90;;
22318;SDS011;11327;52.334;9.506;2023-06-24T07:17:51;7.70;;;5.67;;
22318;SDS011;11327;52.334;9.506;2023-06-24T07:21:12;6.58;;;5.65;;
22318;SDS011;11327;52.334;9.506;2023-06-24T07:24:33;6.70;;;5.67;;
22318;SDS011;11327;52.334;9.506;2023-06-24T07:27:53;7.40;;;5.80;;
22318;SDS011;11327;52.334;9.506;2023-06-24T07:31:14;6.40;;;5.70;;
22318;SDS011;11327;52.334;9.506;2023-06-24T07:34:35;6.62;;;5.50;;
22318;SDS011;11327;52.334;9.506;2023-06-24T07:37:55;6.97;;;5.30;;
22318;SDS011;11327;52.334;9.506;2023-06-24T07:41:16;6.80;;;4.65;;
22318;SDS011;11327;52.334;9.506;2023-06-24T07:44:37;5.20;;;4.40;;
22318;SDS011;11327;52.334;9.506;2023-06-24T07:47:59;4.50;;;4.00;;
22318;SDS011;11327;52.334;9.506;2023-06-24T07:51:20;6.20;;;3.90;;
22318;SDS011;11327;52.334;9.506;2023-06-24T07:54:41;6.20;;;4.35;;
22318;SDS011;11327;52.334;9.506;2023-06-24T07:58:02;4.92;;;4.10;;
22318;SDS011;11327;52.334;9.506;2023-06-24T08:01:23;5.05;;;3.67;;
22318;SDS011;11327;52.334;9.506;2023-06-24T08:04:43;4.00;;;3.10;;
22318;SDS011;11327;52.334;9.506;2023-06-24T08:08:05;3.80;;;3.30;;
22318;SDS011;11327;52.334;9.506;2023-06-24T08:11:26;5.20;;;3.15;;
22318;SDS011;11327;52.334;9.506;2023-06-24T08:14:47;4.22;;;3.30;;
22318;SDS011;11327;52.334;9.506;2023-06-24T08:18:08;4.67;;;4.28;;
22318;SDS011;11327;52.334;9.506;2023-06-24T08:21:28;4.92;;;4.30;;
22318;SDS011;11327;52.334;9.506;2023-06-24T08:24:50;6.25;;;4.45;;
22318;SDS011;11327;52.334;9.506;2023-06-24T08:28:10;8.20;;;6.10;;
22318;SDS011;11327;52.334;9.506;2023-06-24T08:31:31;7.35;;;5.10;;
22318;SDS011;11327;52.334;9.506;2023-06-24T08:34:52;6.83;;;5.05;;
22318;SDS011;11327;52.334;9.506;2023-06-24T08:38:13;6.25;;;4.65;;
22318;SDS011;11327;52.334;9.506;2023-06-24T08:41:34;7.58;;;4.92;;
22318;SDS011;11327;52.334;9.506;2023-06-24T08:44:54;6.65;;;5.17;;
22318;SDS011;11327;52.334;9.506;2023-06-24T08:48:15;5.05;;;4.55;;
22318;SDS011;11327;52.334;9.506;2023-06-24T08:51:39;6.42;;;5.10;;
22318;SDS011;11327;52.334;9.506;2023-06-24T08:55:01;5.55;;;4.33;;
22318;SDS011;11327;52.334;9.506;2023-06-24T08:58:23;6.40;;;4.87;;
22318;SDS011;11327;52.334;9.506;2023-06-24T09:01:43;5.45;;;4.90;;
22318;SDS011;11327;52.334;9.506;2023-06-24T09:05:05;4.92;;;4.45;;
22318;SDS011;11327;52.334;9.506;2023-06-24T09:08:26;5.55;;;4.37;;
22318;SDS011;11327;52.334;9.506;2023-06-24T09:15:18;5.15;;;4.65;;
22318;SDS011;11327;52.334;9.506;2023-06-24T09:18:40;5.95;;;4.42;;
22318;SDS011;11327;52.334;9.506;2023-06-24T09:22:05;6.47;;;4.87;;
22318;SDS011;11327;52.334;9.506;2023-06-24T09:25:27;8.13;;;4.37;;
22318;SDS011;11327;52.334;9.506;2023-06-24T09:28:48;5.15;;;4.47;;
22318;SDS011;11327;52.334;9.506;2023-06-24T09:32:12;5.10;;;3.80;;
22318;SDS011;11327;52.334;9.506;2023-06-24T09:35:34;7.45;;;4.65;;
22318;SDS011;11327;52.334;9.506;2023-06-24T09:38:56;4.60;;;4.05;;
22318;SDS011;11327;52.334;9.506;2023-06-24T09:42:22;4.20;;;3.83;;
22318;SDS011;11327;52.334;9.506;2023-06-24T09:45:43;4.95;;;3.62;;
22318;SDS011;11327;52.334;9.506;2023-06-24T09:49:04;4.83;;;3.70;;
22318;SDS011;11327;52.334;9.506;2023-06-24T09:52:25;5.72;;;4.10;;
22318;SDS011;11327;52.334;9.506;2023-06-24T09:55:46;4.03;;;3.62;;
22318;SDS011;11327;52.334;9.506;2023-06-24T09:59:07;4.20;;;3.80;;
22318;SDS011;11327;52.334;9.506;2023-06-24T10:02:29;6.60;;;4.45;;
22318;SDS011;11327;52.334;9.506;2023-06-24T10:05:52;5.15;;;4.15;;
22318;SDS011;11327;52.334;9.506;2023-06-24T10:09:13;7.78;;;4.20;;
22318;SDS011;11327;52.334;9.506;2023-06-24T10:12:36;4.55;;;4.15;;
22318;SDS011;11327;52.334;9.506;2023-06-24T10:15:57;4.75;;;4.20;;
22318;SDS011;11327;52.334;9.506;2023-06-24T10:19:19;6.72;;;4.10;;
22318;SDS011;11327;52.334;9.506;2023-06-24T10:22:45;5.40;;;4.65;;
22318;SDS011;11327;52.334;9.506;2023-06-24T10:26:10;4.80;;;4.17;;
22318;SDS011;11327;52.334;9.506;2023-06-24T10:29:34;4.35;;;3.95;;
22318;SDS011;11327;52.334;9.506;2023-06-24T10:32:55;4.80;;;4.15;;
22318;SDS011;11327;52.334;9.506;2023-06-24T10:36:31;4.15;;;3.80;;
22318;SDS011;11327;52.334;9.506;2023-06-24T10:39:53;5.63;;;3.83;;
22318;SDS011;11327;52.334;9.506;2023-06-24T10:43:24;4.62;;;3.72;;
22318;SDS011;11327;52.334;9.506;2023-06-24T10:46:53;3.80;;;3.35;;
22318;SDS011;11327;52.334;9.506;2023-06-24T10:50:16;5.22;;;3.33;;
22318;SDS011;11327;52.334;9.506;2023-06-24T10:53:39;4.53;;;3.55;;
22318;SDS011;11327;52.334;9.506;2023-06-24T10:56:59;4.03;;;3.42;;
22318;SDS011;11327;52.334;9.506;2023-06-24T11:00:21;4.10;;;3.50;;
22318;SDS011;11327;52.334;9.506;2023-06-24T11:03:43;4.47;;;3.72;;
22318;SDS011;11327;52.334;9.506;2023-06-24T11:07:03;4.00;;;3.50;;
22318;SDS011;11327;52.334;9.506;2023-06-24T11:10:24;3.98;;;3.58;;
22318;SDS011;11327;52.334;9.506;2023-06-24T11:13:47;4.28;;;3.83;;
22318;SDS011;11327;52.334;9.506;2023-06-24T11:17:08;4.42;;;4.03;;
22318;SDS011;11327;52.334;9.506;2023-06-24T11:20:29;6.12;;;4.20;;
22318;SDS011;11327;52.334;9.506;2023-06-24T11:23:50;4.40;;;3.98;;
22318;SDS011;11327;52.334;9.506;2023-06-24T11:27:11;4.37;;;3.95;;
22318;SDS011;11327;52.334;9.506;2023-06-24T11:30:34;4.45;;;4.05;;
22318;SDS011;11327;52.334;9.506;2023-06-24T11:33:55;5.17;;;4.22;;
22318;SDS011;11327;52.334;9.506;2023-06-24T11:37:17;4.45;;;4.00;;
22318;SDS011;11327;52.334;9.506;2023-06-24T11:40:38;6.25;;;4.20;;
22318;SDS011;11327;52.334;9.506;2023-06-24T11:43:59;4.85;;;4.30;;
22318;SDS011;11327;52.334;9.506;2023-06-24T11:47:22;8.20;;;5.00;;
22318;SDS011;11327;52.334;9.506;2023-06-24T11:50:43;5.45;;;4.28;;
22318;SDS011;11327;52.334;9.506;2023-06-24T11:54:05;6.08;;;4.20;;
22318;SDS011;11327;52.334;9.506;2023-06-24T12:01:14;5.85;;;4.50;;
22318;SDS011;11327;52.334;9.506;2023-06-24T12:04:34;5.05;;;4.17;;
22318;SDS011;11327;52.334;9.506;2023-06-24T12:08:01;5.55;;;4.60;;
22318;SDS011;11327;52.334;9.506;2023-06-24T12:14:44;5.08;;;4.55;;
22318;SDS011;11327;52.334;9.506;2023-06-24T12:18:05;4.25;;;3.77;;
22318;SDS011;11327;52.334;9.506;2023-06-24T12:21:26;5.15;;;4.30;;
22318;SDS011;11327;52.334;9.506;2023-06-24T12:24:47;5.25;;;4.25;;
22318;SDS011;11327;52.334;9.506;2023-06-24T12:28:07;5.10;;;4.22;;
22318;SDS011;11327;52.334;9.506;2023-06-24T12:31:28;8.10;;;4.40;;
22318;SDS011;11327;52.334;9.506;2023-06-24T12:34:49;6.92;;;5.08;;
22318;SDS011;11327;52.334;9.506;2023-06-24T12:38:09;5.92;;;4.60;;
22318;SDS011;11327;52.334;9.506;2023-06-24T12:41:30;5.85;;;4.20;;
22318;SDS011;11327;52.334;9.506;2023-06-24T12:44:52;4.70;;;4.20;;
22318;SDS011;11327;52.334;9.506;2023-06-24T12:48:13;5.05;;;3.98;;
22318;SDS011;11327;52.334;9.506;2023-06-24T12:51:34;5.00;;;4.50;;
22318;SDS011;11327;52.334;9.506;2023-06-24T12:54:55;6.10;;;4.60;;
22318;SDS011;11327;52.334;9.506;2023-06-24T12:58:23;5.65;;;4.30;;
22318;SDS011;11327;52.334;9.506;2023-06-24T13:01:45;4.78;;;3.75;;
22318;SDS011;11327;52.334;9.506;2023-06-24T13:05:06;7.45;;;4.80;;
22318;SDS011;11327;52.334;9.506;2023-06-24T13:08:27;5.33;;;4.83;;
22318;SDS011;11327;52.334;9.506;2023-06-24T13:11:48;5.53;;;4.83;;
22318;SDS011;11327;52.334;9.506;2023-06-24T13:15:09;5.65;;;4.60;;
22318;SDS011;11327;52.334;9.506;2023-06-24T13:18:30;5.20;;;4.70;;
22318;SDS011;11327;52.334;9.506;2023-06-24T13:21:51;6.00;;;4.83;;
22318;SDS011;11327;52.334;9.506;2023-06-24T13:25:11;5.10;;;4.40;;
22318;SDS011;11327;52.334;9.506;2023-06-24T13:28:32;5.85;;;4.50;;
22318;SDS011;11327;52.334;9.506;2023-06-24T13:31:53;5.47;;;4.20;;
22318;SDS011;11327;52.334;9.506;2023-06-24T13:35:14;4.92;;;4.40;;
22318;SDS011;11327;52.334;9.506;2023-06-24T13:38:35;4.62;;;4.20;;
22318;SDS011;11327;52.334;9.506;2023-06-24T13:41:56;4.28;;;3.87;;
22318;SDS011;11327;52.334;9.506;2023-06-24T13:45:17;5.75;;;4.25;;
22318;SDS011;11327;52.334;9.506;2023-06-24T13:48:37;4.65;;;4.15;;
22318;SDS011;11327;52.334;9.506;2023-06-24T13:51:58;4.65;;;4.22;;
22318;SDS011;11327;52.334;9.506;2023-06-24T13:55:19;4.85;;;4.03;;
22318;SDS011;11327;52.334;9.506;2023-06-24T13:58:40;4.90;;;4.12;;
22318;SDS011;11327;52.334;9.506;2023-06-24T14:02:01;5.20;;;4.70;;
22318;SDS011;11327;52.334;9.506;2023-06-24T14:05:22;4.72;;;4.22;;
22318;SDS011;11327;52.334;9.506;2023-06-24T14:08:43;5.70;;;4.55;;
22318;SDS011;11327;52.334;9.506;2023-06-24T14:12:04;4.87;;;3.92;;
22318;SDS011;11327;52.334;9.506;2023-06-24T14:15:25;4.92;;;4.25;;
22318;SDS011;11327;52.334;9.506;2023-06-24T14:18:46;5.03;;;4.53;;
22318;SDS011;11327;52.334;9.506;2023-06-24T14:22:07;4.80;;;4.30;;
22318;SDS011;11327;52.334;9.506;2023-06-24T14:25:28;4.70;;;4.25;;
22318;SDS011;11327;52.334;9.506;2023-06-24T14:28:49;4.97;;;4.08;;
22318;SDS011;11327;52.334;9.506;2023-06-24T14:32:09;5.22;;;4.60;;
22318;SDS011;11327;52.334;9.506;2023-06-24T14:35:30;5.40;;;4.37;;
22318;SDS011;11327;52.334;9.506;2023-06-24T14:38:51;6.45;;;5.10;;
22318;SDS011;11327;52.334;9.506;2023-06-24T14:42:12;5.40;;;4.28;;
22318;SDS011;11327;52.334;9.506;2023-06-24T14:45:32;6.00;;;5.03;;
22318;SDS011;11327;52.334;9.506;2023-06-24T14:48:53;5.60;;;5.03;;
22318;SDS011;11327;52.334;9.506;2023-06-24T14:52:14;7.75;;;4.83;;
22318;SDS011;11327;52.334;9.506;2023-06-24T14:55:34;7.92;;;4.95;;
22318;SDS011;11327;52.334;9.506;2023-06-24T14:58:56;6.72;;;4.65;;
22318;SDS011;11327;52.334;9.506;2023-06-24T15:02:18;5.40;;;4.90;;
22318;SDS011;11327;52.334;9.506;2023-06-24T15:05:38;5.33;;;4.80;;
22318;SDS011;11327;52.334;9.506;2023-06-24T15:08:59;6.03;;;4.65;;
22318;SDS011;11327;52.334;9.506;2023-06-24T15:12:20;6.25;;;5.00;;
22318;SDS011;11327;52.334;9.506;2023-06-24T15:15:41;6.58;;;4.83;;
22318;SDS011;11327;52.334;9.506;2023-06-24T15:19:01;5.00;;;4.10;;
22318;SDS011;11327;52.334;9.506;2023-06-24T15:22:22;4.92;;;4.45;;
22318;SDS011;11327;52.334;9.506;2023-06-24T15:25:43;5.50;;;4.35;;
22318;SDS011;11327;52.334;9.506;2023-06-24T15:29:04;5.90;;;4.70;;
22318;SDS011;11327;52.334;9.506;2023-06-24T15:32:25;5.47;;;4.65;;
22318;SDS011;11327;52.334;9.506;2023-06-24T15:35:45;5.15;;;4.62;;
22318;SDS011;11327;52.334;9.506;2023-06-24T15:39:06;4.80;;;4.30;;
22318;SDS011;11327;52.334;9.506;2023-06-24T15:42:27;5.75;;;4.90;;
22318;SDS011;11327;52.334;9.506;2023-06-24T15:45:48;5.45;;;4.37;;
22318;SDS011;11327;52.334;9.506;2023-06-24T15:49:09;8.28;;;4.33;;
22318;SDS011;11327;52.334;9.506;2023-06-24T15:52:29;5.10;;;4.45;;
22318;SDS011;11327;52.334;9.506;2023-06-24T15:55:50;5.35;;;4.15;;
22318;SDS011;11327;52.334;9.506;2023-06-24T15:59:11;5.40;;;4.70;;
22318;SDS011;11327;52.334;9.506;2023-06-24T16:02:32;6.45;;;4.37;;
22318;SDS011;11327;52.334;9.506;2023-06-24T16:05:53;5.15;;;4.65;;
22318;SDS011;11327;52.334;9.506;2023-06-24T16:09:14;5.28;;;4.60;;
22318;SDS011;11327;52.334;9.506;2023-06-24T16:12:35;5.97;;;4.53;;
22318;SDS011;11327;52.334;9.506;2023-06-24T16:15:56;4.83;;;4.40;;
22318;SDS011;11327;52.334;9.506;2023-06-24T16:19:16;4.78;;;4.20;;
22318;SDS011;11327;52.334;9.506;2023-06-24T16:22:37;5.03;;;4.53;;
22318;SDS011;11327;52.334;9.506;2023-06-24T16:25:58;5.50;;;4.47;;
22318;SDS011;11327;52.334;9.506;2023-06-24T16:29:19;4.90;;;4.47;;
22318;SDS011;11327;52.334;9.506;2023-06-24T16:32:40;5.05;;;4.53;;
22318;SDS011;11327;52.334;9.506;2023-06-24T16:36:01;5.53;;;4.92;;
22318;SDS011;11327;52.334;9.506;2023-06-24T16:39:22;4.65;;;4.25;;
22318;SDS011;11327;52.334;9.506;2023-06-24T16:42:43;5.35;;;4.47;;
22318;SDS011;11327;52.334;9.506;2023-06-24T16:46:04;5.15;;;4.53;;
22318;SDS011;11327;52.334;9.506;2023-06-24T16:49:24;5.25;;;4.75;;
22318;SDS011;11327;52.334;9.506;2023-06-24T16:52:45;5.00;;;4.55;;
22318;SDS011;11327;52.334;9.506;2023-06-24T16:56:06;5.28;;;4.37;;
22318;SDS011;11327;52.334;9.506;2023-06-24T16:59:26;5.30;;;4.78;;
22318;SDS011;11327;52.334;9.506;2023-06-24T17:02:47;4.75;;;4.25;;
22318;SDS011;11327;52.334;9.506;2023-06-24T17:06:08;5.87;;;4.83;;
22318;SDS011;11327;52.334;9.506;2023-06-24T17:09:29;4.85;;;4.40;;
22318;SDS011;11327;52.334;9.506;2023-06-24T17:12:49;5.40;;;4.55;;
22318;SDS011;11327;52.334;9.506;2023-06-24T17:16:10;5.17;;;4.75;;
22318;SDS011;11327;52.334;9.506;2023-06-24T17:19:31;5.42;;;4.50;;
22318;SDS011;11327;52.334;9.506;2023-06-24T17:22:51;4.97;;;4.37;;
22318;SDS011;11327;52.334;9.506;2023-06-24T17:26:12;5.65;;;4.97;;
22318;SDS011;11327;52.334;9.506;2023-06-24T17:29:33;5.15;;;4.67;;
22318;SDS011;11327;52.334;9.506;2023-06-24T17:32:53;4.90;;;4.37;;
22318;SDS011;11327;52.334;9.506;2023-06-24T17:36:14;5.72;;;4.35;;
22318;SDS011;11327;52.334;9.506;2023-06-24T17:39:35;4.85;;;4.35;;
22318;SDS011;11327;52.334;9.506;2023-06-24T17:42:56;5.25;;;4.78;;
22318;SDS011;11327;52.334;9.506;2023-06-24T17:46:17;4.95;;;4.45;;
22318;SDS011;11327;52.334;9.506;2023-06-24T17:49:37;5.40;;;4.90;;
22318;SDS011;11327;52.334;9.506;2023-06-24T17:52:59;5.58;;;4.58;;
22318;SDS011;11327;52.334;9.506;2023-06-24T17:56:20;6.03;;;4.90;;
22318;SDS011;11327;52.334;9.506;2023-06-24T17:59:43;5.80;;;5.17;;
22318;SDS011;11327;52.334;9.506;2023-06-24T18:03:05;4.70;;;4.28;;
22318;SDS011;11327;52.334;9.506;2023-06-24T18:06:27;5.65;;;4.90;;
22318;SDS011;11327;52.334;9.506;2023-06-24T18:09:48;5.92;;;4.47;;
22318;SDS011;11327;52.334;9.506;2023-06-24T18:13:09;6.72;;;5.45;;
22318;SDS011;11327;52.334;9.506;2023-06-24T18:16:30;5.53;;;4.92;;
22318;SDS011;11327;52.334;9.506;2023-06-24T18:19:50;4.90;;;4.40;;
22318;SDS011;11327;52.334;9.506;2023-06-24T18:23:11;5.72;;;4.90;;
22318;SDS011;11327;52.334;9.506;2023-06-24T18:26:32;5.25;;;4.75;;
22318;SDS011;11327;52.334;9.506;2023-06-24T18:29:53;4.90;;;4.50;;
22318;SDS011;11327;52.334;9.506;2023-06-24T18:33:13;5.85;;;5.08;;
22318;SDS011;11327;52.334;9.506;2023-06-24T18:36:34;5.00;;;4.60;;
22318;SDS011;11327;52.334;9.506;2023-06-24T18:39:56;5.58;;;4.50;;
22318;SDS011;11327;52.334;9.506;2023-06-24T18:43:17;4.90;;;4.42;;
22318;SDS011;11327;52.334;9.506;2023-06-24T18:46:38;5.47;;;4.55;;
22318;SDS011;11327;52.334;9.506;2023-06-24T18:49:59;5.20;;;4.70;;
22318;SDS011;11327;52.334;9.506;2023-06-24T18:53:21;5.37;;;4.50;;
22318;SDS011;11327;52.334;9.506;2023-06-24T18:56:43;4.95;;;4.45;;
22318;SDS011;11327;52.334;9.506;2023-06-24T19:00:04;5.35;;;4.85;;
22318;SDS011;11327;52.334;9.506;2023-06-24T19:03:25;5.17;;;4.67;;
22318;SDS011;11327;52.334;9.506;2023-06-24T19:06:45;4.85;;;4.42;;
22318;SDS011;11327;52.334;9.506;2023-06-24T19:10:06;5.78;;;4.90;;
22318;SDS011;11327;52.334;9.506;2023-06-24T19:13:27;5.50;;;5.00;;
22318;SDS011;11327;52.334;9.506;2023-06-24T19:16:48;5.42;;;4.95;;
22318;SDS011;11327;52.334;9.506;2023-06-24T19:20:09;5.55;;;5.05;;
22318;SDS011;11327;52.334;9.506;2023-06-24T19:23:30;5.80;;;5.17;;
22318;SDS011;11327;52.334;9.506;2023-06-24T19:26:51;6.00;;;5.40;;
22318;SDS011;11327;52.334;9.506;2023-06-24T19:30:12;6.05;;;5.45;;
22318;SDS011;11327;52.334;9.506;2023-06-24T19:33:33;7.65;;;5.80;;
22318;SDS011;11327;52.334;9.506;2023-06-24T19:36:55;6.40;;;5.80;;
22318;SDS011;11327;52.334;9.506;2023-06-24T19:40:17;6.30;;;5.80;;
22318;SDS011;11327;52.334;9.506;2023-06-24T19:43:39;6.05;;;5.45;;
22318;SDS011;11327;52.334;9.506;2023-06-24T19:47:01;6.87;;;6.17;;
22318;SDS011;11327;52.334;9.506;2023-06-24T19:50:21;6.90;;;6.20;;
22318;SDS011;11327;52.334;9.506;2023-06-24T19:53:42;6.72;;;6.08;;
22318;SDS011;11327;52.334;9.506;2023-06-24T19:57:03;7.05;;;6.35;;
22318;SDS011;11327;52.334;9.506;2023-06-24T20:00:24;7.10;;;6.42;;
22318;SDS011;11327;52.334;9.506;2023-06-24T20:03:44;6.87;;;6.28;;
22318;SDS011;11327;52.334;9.506;2023-06-24T20:07:05;7.15;;;6.45;;
22318;SDS011;11327;52.334;9.506;2023-06-24T20:10:26;7.45;;;6.62;;
22318;SDS011;11327;52.334;9.506;2023-06-24T20:13:47;7.03;;;6.42;;
22318;SDS011;11327;52.334;9.506;2023-06-24T20:17:08;7.17;;;6.47;;
22318;SDS011;11327;52.334;9.506;2023-06-24T20:20:29;7.40;;;6.70;;
22318;SDS011;11327;52.334;9.506;2023-06-24T20:23:49;8.25;;;7.45;;
22318;SDS011;11327;52.334;9.506;2023-06-24T20:27:10;7.47;;;6.78;;